TimeEST,TemperatureF,Dew PointF,Humidity,Sea Level PressureIn,VisibilityMPH,Wind Direction,Wind SpeedMPH,Gust SpeedMPH,PrecipitationIn,Events,Conditions,WindDirDegrees,DateUTC
12:54 AM,50.0,44.1,80,30.06,10.0,ENE,10.4,-,N/A,,Overcast,60,2012-12-26 05:54:00
1:54 AM,50.0,45.0,83,30.04,10.0,ENE,11.5,-,N/A,,Overcast,60,2012-12-26 06:54:00
2:54 AM,51.1,45.0,80,30.03,10.0,ENE,13.8,23.0,N/A,,Overcast,70,2012-12-26 07:54:00
3:09 AM,51.8,44.6,76,30.03,10.0,ENE,16.1,24.2,N/A,,Overcast,60,2012-12-26 08:09:00
3:54 AM,51.1,45.0,80,30.01,10.0,ENE,15.0,20.7,N/A,,Overcast,60,2012-12-26 08:54:00
4:54 AM,52.0,46.0,80,29.96,10.0,ENE,15.0,25.3,0.00,,Overcast,60,2012-12-26 09:54:00
5:52 AM,51.8,48.2,88,29.94,5.0,ENE,17.3,26.5,0.04,Rain,Light Rain,70,2012-12-26 10:52:00
5:54 AM,51.1,48.0,89,29.94,6.0,ENE,19.6,26.5,0.04,Rain,Light Rain,60,2012-12-26 10:54:00
6:45 AM,51.8,48.2,88,29.93,5.0,ENE,12.7,19.6,0.03,Rain,Heavy Rain,70,2012-12-26 11:45:00
6:54 AM,51.1,48.0,89,29.90,3.0,ENE,19.6,25.3,0.07,Rain,Heavy Rain,60,2012-12-26 11:54:00
7:06 AM,51.8,48.2,88,29.89,3.0,ENE,19.6,25.3,0.05,Rain,Heavy Rain,70,2012-12-26 12:06:00
7:25 AM,51.8,48.2,88,29.88,5.0,ENE,20.7,26.5,0.10,Rain,Rain,60,2012-12-26 12:25:00
7:54 AM,53.1,50.0,89,29.86,3.0,ENE,17.3,27.6,0.19,Rain,Heavy Rain,70,2012-12-26 12:54:00
8:07 AM,53.6,50.0,88,29.88,1.8,East,11.5,-,0.14,Rain,Heavy Rain,100,2012-12-26 13:07:00
8:15 AM,53.6,51.8,94,29.88,2.0,East,4.6,-,0.18,Rain,Rain,100,2012-12-26 13:15:00
8:21 AM,53.6,51.8,94,29.87,1.8,ENE,5.8,-,0.23,Rain,Heavy Rain,60,2012-12-26 13:21:00
8:26 AM,53.6,51.8,94,29.86,1.5,Calm,Calm,-,0.24,Rain,Rain,0,2012-12-26 13:26:00
8:31 AM,53.6,51.8,94,29.86,3.0,NW,5.8,-,0.24,Rain,Light Rain,310,2012-12-26 13:31:00
8:54 AM,53.1,51.1,93,29.83,1.8,East,3.5,-,0.28,Rain,Heavy Rain,80,2012-12-26 13:54:00
9:05 AM,53.6,51.8,94,29.84,2.5,Calm,Calm,-,0.01,Rain,Light Rain,0,2012-12-26 14:05:00
9:12 AM,53.6,51.8,94,29.84,4.0,NE,4.6,-,0.01,Rain,Light Rain,50,2012-12-26 14:12:00
9:54 AM,55.0,53.1,93,29.78,2.0,East,6.9,-,0.05,Rain,Light Rain,90,2012-12-26 14:54:00
10:03 AM,55.4,53.6,94,29.80,4.0,ESE,3.5,-,0.00,,Mostly Cloudy,110,2012-12-26 15:03:00
10:13 AM,57.2,55.4,94,29.79,5.0,Variable,5.8,-,0.00,Rain,Light Rain,0,2012-12-26 15:13:00
10:28 AM,59.0,57.2,94,29.77,3.0,SE,4.6,21.9,0.03,Rain,Light Rain,130,2012-12-26 15:28:00
10:31 AM,59.0,57.2,94,29.77,2.5,SE,6.9,-,0.03,Rain,Rain,130,2012-12-26 15:31:00
10:33 AM,60.8,57.2,88,29.76,3.0,SE,8.1,-,0.03,Rain,Rain,130,2012-12-26 15:33:00
10:49 AM,64.4,60.8,88,29.74,7.0,South,11.5,18.4,0.04,Rain,Light Rain,170,2012-12-26 15:49:00
10:54 AM,64.0,61.0,90,29.74,7.0,South,16.1,21.9,0.04,Rain,Light Rain,170,2012-12-26 15:54:00
11:49 AM,66.2,60.8,83,29.66,7.0,South,13.8,21.9,0.05,Rain-Thunderstorm,Light Thunderstorms and Rain,170,2012-12-26 16:49:00
11:54 AM,66.0,61.0,84,29.65,7.0,SSE,15.0,24.2,0.05,Thunderstorm,Thunderstorm,160,2012-12-26 16:54:00
12:05 PM,66.2,60.8,83,29.64,9.0,SSE,18.4,27.6,0.00,,Overcast,160,2012-12-26 17:05:00
12:54 PM,66.9,60.1,79,29.58,9.0,South,17.3,32.2,0.01,,Overcast,170,2012-12-26 17:54:00
1:17 PM,66.2,60.8,83,29.58,2.5,South,9.2,25.3,0.05,Rain-Thunderstorm,Thunderstorms and Rain,180,2012-12-26 18:17:00
1:35 PM,66.2,62.6,88,29.60,4.0,SSW,21.9,34.5,0.11,Rain-Thunderstorm,Thunderstorms and Rain,200,2012-12-26 18:35:00
1:54 PM,66.0,62.1,87,29.58,3.0,SSW,16.1,24.2,0.16,Rain,Rain,200,2012-12-26 18:54:00
2:00 PM,66.2,62.6,88,29.58,2.5,South,11.5,24.2,0.02,Rain-Thunderstorm,Thunderstorms and Rain,190,2012-12-26 19:00:00
2:07 PM,64.4,60.8,88,29.57,3.0,South,13.8,19.6,0.04,Rain-Thunderstorm,Thunderstorms and Rain,190,2012-12-26 19:07:00
2:26 PM,64.4,62.6,94,29.55,1.5,South,15.0,21.9,0.16,Rain-Thunderstorm,Heavy Thunderstorms and Rain,180,2012-12-26 19:26:00
2:58 PM,66.2,62.6,88,29.51,3.0,South,19.6,31.1,0.00,Rain-Thunderstorm,Light Rain,180,2012-12-26 19:58:00
3:06 PM,66.2,60.8,83,29.52,9.0,SSW,18.4,28.8,0.00,Thunderstorm,Thunderstorm,200,2012-12-26 20:06:00
3:19 PM,66.2,60.8,83,29.50,7.0,South,12.7,32.2,0.00,Thunderstorm,Thunderstorm,190,2012-12-26 20:19:00
3:54 PM,66.9,61.0,81,29.49,6.0,SSW,19.6,33.4,0.00,,Overcast,200,2012-12-26 20:54:00
4:10 PM,66.2,60.8,83,29.49,8.0,SSW,18.4,32.2,N/A,,Mostly Cloudy,200,2012-12-26 21:10:00
4:54 PM,64.9,60.1,84,29.48,8.0,SSW,16.1,29.9,N/A,,Overcast,200,2012-12-26 21:54:00
5:39 PM,64.4,57.2,77,29.47,10.0,SSW,18.4,25.3,N/A,,Scattered Clouds,210,2012-12-26 22:39:00
5:54 PM,64.0,57.0,78,29.45,10.0,SSW,18.4,25.3,N/A,,Clear,210,2012-12-26 22:54:00
6:54 PM,61.0,53.1,75,29.48,10.0,SW,21.9,33.4,N/A,,Clear,220,2012-12-26 23:54:00
7:54 PM,59.0,52.0,78,29.49,10.0,SW,13.8,23.0,N/A,,Clear,230,2012-12-27 00:54:00
8:54 PM,57.9,48.9,72,29.50,10.0,WSW,12.7,-,N/A,,Mostly Cloudy,240,2012-12-27 01:54:00
9:54 PM,57.9,46.0,65,29.54,10.0,WSW,17.3,-,N/A,,Overcast,250,2012-12-27 02:54:00
10:39 PM,53.6,44.6,72,29.58,10.0,WNW,24.2,29.9,N/A,,Overcast,290,2012-12-27 03:39:00
10:54 PM,52.0,43.0,71,29.58,10.0,WNW,23.0,34.5,N/A,,Overcast,300,2012-12-27 03:54:00
11:26 PM,50.0,41.0,71,29.60,10.0,WNW,19.6,25.3,N/A,,Mostly Cloudy,290,2012-12-27 04:26:00
11:54 PM,48.9,41.0,74,29.61,10.0,West,17.3,24.2,N/A,,Mostly Cloudy,280,2012-12-27 04:54:00